createdAt,value
2022-12-20T00:00:14.413Z,102343.75
2022-12-20T00:03:17.219Z,102348.69
2022-12-20T00:06:20.820Z,102350.31
2022-12-20T00:09:23.103Z,102354.22
2022-12-20T00:12:25.409Z,102354.09
2022-12-20T00:15:27.894Z,102354.44
2022-12-20T00:18:30.161Z,102353.97
2022-12-20T00:21:36.141Z,102354.34
2022-12-20T00:24:38.448Z,102355.81
2022-12-20T00:27:40.730Z,102349.19
2022-12-20T00:30:42.982Z,102337.25
2022-12-20T00:33:49.073Z,102344.06
2022-12-20T00:36:53.494Z,102341.31
2022-12-20T00:39:55.740Z,102336.78
2022-12-20T00:42:58.097Z,102334.06
2022-12-20T00:46:01.103Z,102330.00
2022-12-20T00:49:04.672Z,102327.13
2022-12-20T00:52:07.335Z,102307.19
2022-12-20T00:55:09.720Z,102300.53
2022-12-20T00:58:13.090Z,102289.41
2022-12-20T01:01:27.655Z,102303.00
2022-12-20T01:04:30.062Z,102301.22
2022-12-20T01:07:33.317Z,102306.59
2022-12-20T01:10:36.688Z,102297.56
2022-12-20T01:13:48.471Z,102297.88
2022-12-20T01:16:50.732Z,102290.75
2022-12-20T01:19:53.106Z,102304.94
2022-12-20T01:22:55.525Z,102304.28
2022-12-20T01:26:14.240Z,102299.91
2022-12-20T01:29:20.478Z,102284.84
2022-12-20T01:32:23.118Z,102270.94
2022-12-20T01:35:30.067Z,102269.38
2022-12-20T01:38:33.023Z,102257.50
2022-12-20T01:41:41.958Z,102251.47
2022-12-20T01:44:55.192Z,102256.38
2022-12-20T01:48:01.359Z,102248.31
2022-12-20T01:51:25.006Z,102240.84
2022-12-20T01:55:01.323Z,102231.94
2022-12-20T02:03:38.204Z,102211.56
2022-12-20T03:06:05.110Z,102158.56
2022-12-20T03:10:27.467Z,102151.91
2022-12-20T03:18:42.835Z,102155.03
2022-12-20T03:22:35.177Z,102157.28
2022-12-20T03:26:19.443Z,102148.69
2022-12-20T03:29:41.181Z,102136.22
2022-12-20T03:32:57.496Z,102150.16
2022-12-20T03:36:03.220Z,102161.00
2022-12-20T03:39:42.052Z,102152.56
2022-12-20T03:43:20.086Z,102157.09
2022-12-20T03:46:40.511Z,102147.69
2022-12-20T03:50:09.397Z,102134.25
2022-12-20T03:53:43.487Z,102139.47
2022-12-20T03:57:13.295Z,102138.16
2022-12-20T04:00:32.925Z,102133.94
2022-12-20T04:04:51.440Z,102121.81
2022-12-20T04:07:50.900Z,102122.31
2022-12-20T04:11:19.290Z,102121.84
2022-12-20T04:14:55.870Z,102107.41
2022-12-20T04:18:59.561Z,102100.47
2022-12-20T04:22:07.855Z,102098.66
2022-12-20T04:29:31.135Z,102095.28
2022-12-20T04:33:33.089Z,102100.78
2022-12-20T04:44:36.745Z,102099.50
2022-12-20T04:48:56.214Z,102096.59
2022-12-20T04:52:22.536Z,102101.91
2022-12-20T04:55:25.701Z,102113.59
2022-12-20T04:58:28.772Z,102119.91
2022-12-20T05:01:31.267Z,102111.78
2022-12-20T05:04:37.505Z,102112.44
2022-12-20T05:07:40.781Z,102113.91
2022-12-20T05:10:43.258Z,102118.59
2022-12-20T05:13:45.712Z,102120.38
2022-12-20T05:16:49.012Z,102124.44
2022-12-20T05:19:51.374Z,102131.72
2022-12-20T05:23:14.611Z,102135.56
2022-12-20T05:26:20.066Z,102123.75
2022-12-20T05:29:24.353Z,102119.84
2022-12-20T05:32:26.875Z,102137.00
2022-12-20T05:35:30.006Z,102130.41
2022-12-20T05:38:39.555Z,102131.34
2022-12-20T05:41:48.053Z,102137.31
2022-12-20T05:44:50.315Z,102130.88
2022-12-20T05:47:52.935Z,102131.47
2022-12-20T05:50:55.295Z,102123.44
2022-12-20T05:54:03.235Z,102114.50
2022-12-20T05:57:23.992Z,102107.09
2022-12-20T06:00:26.287Z,102106.44
2022-12-20T06:03:28.822Z,102092.84
2022-12-20T06:06:31.548Z,102077.16
2022-12-20T06:09:34.405Z,102078.31
2022-12-20T06:12:41.602Z,102079.09
2022-12-20T06:15:45.013Z,102085.88
2022-12-20T06:18:47.388Z,102085.22
2022-12-20T06:21:50.321Z,102089.28
2022-12-20T06:24:56.234Z,102083.94
2022-12-20T06:28:02.669Z,102089.75
2022-12-20T06:31:05.976Z,102071.44
2022-12-20T06:34:18.400Z,102078.06
2022-12-20T06:37:21.321Z,102066.47
2022-12-20T06:40:24.353Z,102077.81
2022-12-20T06:43:27.277Z,102050.97
2022-12-20T06:46:29.795Z,102055.00
2022-12-20T06:49:33.269Z,102057.44
2022-12-20T06:52:36.853Z,102052.09
2022-12-20T06:55:40.032Z,102048.03
2022-12-20T06:58:42.408Z,102047.56
2022-12-20T07:01:45.162Z,102048.84
2022-12-20T07:04:56.292Z,102047.53
2022-12-20T07:08:02.899Z,102048.66
2022-12-20T07:11:07.411Z,102048.63
2022-12-20T07:14:10.227Z,102056.03
2022-12-20T07:17:12.725Z,102060.88
2022-12-20T07:20:15.316Z,102049.38
2022-12-20T07:23:18.982Z,102054.84
2022-12-20T07:26:21.919Z,102051.22
2022-12-20T07:29:25.941Z,102054.16
2022-12-20T07:32:28.556Z,102075.22
2022-12-20T07:35:30.804Z,102069.38
2022-12-20T07:38:34.167Z,102044.53
2022-12-20T07:41:36.949Z,102061.81
2022-12-20T07:44:39.568Z,102063.91
2022-12-20T07:47:41.851Z,102063.53
2022-12-20T07:50:45.741Z,102061.34
2022-12-20T07:53:52.359Z,102065.78
2022-12-20T07:57:10.182Z,102043.81
2022-12-20T08:00:13.684Z,102053.66
2022-12-20T08:03:27.074Z,102057.88
2022-12-20T08:06:30.095Z,102048.03
2022-12-20T08:09:37.477Z,102026.91
2022-12-20T08:12:41.526Z,102034.00
2022-12-20T08:15:44.040Z,102021.22
2022-12-20T08:18:54.069Z,102018.13
2022-12-20T08:21:59.692Z,102015.09
2022-12-20T08:25:02.261Z,102014.28
2022-12-20T08:28:04.736Z,102010.69
2022-12-20T08:31:09.433Z,102028.81
2022-12-20T08:34:13.520Z,102018.06
2022-12-20T08:37:19.339Z,102021.59
2022-12-20T08:40:21.649Z,102020.19
2022-12-20T08:43:24.719Z,102030.19
2022-12-20T08:46:27.001Z,102016.56
2022-12-20T08:49:29.325Z,102017.56
2022-12-20T08:52:32.056Z,102010.78
2022-12-20T08:55:34.415Z,102012.78
2022-12-20T08:58:39.678Z,102009.75
2022-12-20T09:01:42.089Z,102018.41
2022-12-20T09:04:44.995Z,102013.59
2022-12-20T09:07:47.756Z,101999.88
2022-12-20T09:10:50.345Z,102003.63
2022-12-20T09:13:57.607Z,102016.50
2022-12-20T09:16:59.864Z,102019.00
2022-12-20T09:20:02.412Z,102016.06
2022-12-20T09:23:04.810Z,102005.72
2022-12-20T09:26:11.412Z,102000.09
2022-12-20T09:29:14.795Z,101991.84
2022-12-20T09:32:19.977Z,101999.81
2022-12-20T09:35:23.490Z,101982.63
2022-12-20T09:38:27.547Z,101984.53
2022-12-20T09:41:41.852Z,101959.09
2022-12-20T09:44:44.115Z,101963.94
2022-12-20T09:47:46.511Z,101963.13
2022-12-20T09:51:14.048Z,101963.66
2022-12-20T09:54:42.318Z,101955.94
2022-12-20T09:57:54.233Z,101952.88
2022-12-20T10:00:58.060Z,101950.78
2022-12-20T10:04:06.075Z,101944.00
2022-12-20T10:07:27.112Z,101943.03
2022-12-20T10:10:50.498Z,101949.16
2022-12-20T10:13:58.595Z,101929.81
2022-12-20T10:17:41.799Z,101924.75
2022-12-20T10:20:50.316Z,101921.78
2022-12-20T10:24:24.993Z,101907.72
2022-12-20T10:27:27.520Z,101912.06
2022-12-20T10:30:32.405Z,101914.03
2022-12-20T10:33:35.326Z,101895.97
2022-12-20T10:36:38.127Z,101889.44
2022-12-20T10:39:43.481Z,101895.38
2022-12-20T10:42:45.922Z,101888.66
2022-12-20T10:46:08.317Z,101887.59
2022-12-20T10:49:32.303Z,101897.06
2022-12-20T10:52:34.798Z,101866.50
2022-12-20T10:55:39.677Z,101855.03
2022-12-20T10:58:42.409Z,101859.13
2022-12-20T11:01:47.904Z,101846.59
2022-12-20T11:05:13.117Z,101848.66
2022-12-20T11:08:39.136Z,101848.63
2022-12-20T11:12:01.324Z,101840.06
2022-12-20T11:15:34.828Z,101846.09
2022-12-20T11:18:50.323Z,101840.78
2022-12-20T11:21:52.629Z,101831.34
2022-12-20T11:25:36.374Z,101817.84
2022-12-20T11:29:09.940Z,101809.59
2022-12-20T11:32:22.871Z,101805.38
2022-12-20T11:35:51.647Z,101798.78
2022-12-20T11:39:27.939Z,101790.97
2022-12-20T11:42:33.525Z,101804.44
2022-12-20T11:45:41.966Z,101787.97
2022-12-20T11:49:21.256Z,101788.94
2022-12-20T11:52:42.191Z,101777.94
2022-12-20T11:55:49.680Z,101793.00
2022-12-20T11:59:07.306Z,101796.84
2022-12-20T12:02:14.640Z,101778.75
2022-12-20T12:05:23.613Z,101785.53
2022-12-20T12:08:35.406Z,101768.47
2022-12-20T12:15:31.928Z,101769.91
2022-12-20T12:18:36.512Z,101765.91
2022-12-20T12:21:44.555Z,101774.75
2022-12-20T12:24:51.942Z,101764.50
2022-12-20T12:27:57.119Z,101760.09
2022-12-20T12:31:15.560Z,101766.50
2022-12-20T12:34:35.868Z,101753.22
2022-12-20T12:37:44.139Z,101743.56
2022-12-20T12:41:07.871Z,101728.13
2022-12-20T12:44:19.048Z,101738.16
2022-12-20T12:47:29.419Z,101733.78
2022-12-20T12:50:47.564Z,101738.78
2022-12-20T12:53:53.126Z,101729.97
2022-12-20T12:57:06.980Z,101741.56
2022-12-20T13:00:49.522Z,101745.19
2022-12-20T13:03:53.125Z,101731.72
2022-12-20T13:07:02.419Z,101733.13
2022-12-20T13:10:18.370Z,101730.34
2022-12-20T13:13:23.677Z,101717.91
2022-12-20T13:16:48.786Z,101728.56
2022-12-20T13:19:55.104Z,101714.22
2022-12-20T13:23:23.823Z,101714.97
2022-12-20T13:26:54.657Z,101712.56
2022-12-20T13:30:15.002Z,101713.56
2022-12-20T13:33:24.081Z,101708.38
2022-12-20T13:36:37.907Z,101697.72
2022-12-20T13:39:41.375Z,101705.72
2022-12-20T13:42:43.883Z,101712.75
2022-12-20T13:46:07.751Z,101716.53
2022-12-20T13:49:39.021Z,101702.22
2022-12-20T13:52:45.121Z,101702.56
2022-12-20T13:55:48.925Z,101696.22
2022-12-20T13:58:51.260Z,101696.38
2022-12-20T14:01:57.810Z,101682.13
2022-12-20T14:05:03.609Z,101673.13
2022-12-20T14:08:14.346Z,101666.50
2022-12-20T14:11:27.103Z,101662.56
2022-12-20T14:14:29.455Z,101674.19
2022-12-20T14:17:33.404Z,101663.06
2022-12-20T14:20:37.718Z,101665.78
2022-12-20T14:23:50.103Z,101659.56
2022-12-20T14:26:56.695Z,101656.66
2022-12-20T14:30:00.305Z,101654.06
2022-12-20T14:33:02.869Z,101654.06
2022-12-20T14:36:19.187Z,101641.59
2022-12-20T14:39:29.070Z,101646.34
2022-12-20T14:42:36.852Z,101641.59
2022-12-20T14:45:39.120Z,101648.34
2022-12-20T14:48:41.616Z,101644.16
2022-12-20T14:51:44.171Z,101648.16
2022-12-20T14:55:09.107Z,101643.91
2022-12-20T14:58:31.504Z,101644.78
2022-12-20T15:01:38.358Z,101637.91
2022-12-20T15:04:44.110Z,101648.28
2022-12-20T15:07:46.327Z,101644.16
2022-12-20T15:10:54.988Z,101647.13
2022-12-20T15:13:59.120Z,101644.47
2022-12-20T15:17:01.749Z,101653.63
2022-12-20T15:20:04.249Z,101634.94
2022-12-20T15:23:25.910Z,101634.44
2022-12-20T15:26:31.083Z,101633.34
2022-12-20T15:29:33.377Z,101630.50
2022-12-20T15:32:36.161Z,101642.84
2022-12-20T15:35:38.381Z,101654.41
2022-12-20T15:39:10.673Z,101647.63
2022-12-20T15:42:04.813Z,101658.16
2022-12-20T15:45:11.658Z,101663.75
2022-12-20T15:48:16.099Z,101665.88
2022-12-20T15:51:26.790Z,101654.06
2022-12-20T15:54:35.803Z,101657.63
2022-12-20T15:57:38.087Z,101657.84
2022-12-20T16:00:41.825Z,101650.50
2022-12-20T16:03:44.244Z,101643.06
2022-12-20T16:06:49.477Z,101647.94
2022-12-20T16:09:51.886Z,101645.72
2022-12-20T16:12:55.645Z,101656.19
2022-12-20T16:15:57.900Z,101659.53
2022-12-20T16:19:01.319Z,101649.97
2022-12-20T16:22:04.058Z,101653.78
2022-12-20T16:25:06.908Z,101653.25
2022-12-20T16:28:09.312Z,101640.25
2022-12-20T16:31:24.699Z,101642.69
2022-12-20T16:34:26.984Z,101649.47
2022-12-20T16:37:33.048Z,101642.44
2022-12-20T16:40:38.116Z,101635.00
2022-12-20T16:43:41.175Z,101630.53
2022-12-20T16:46:43.879Z,101641.16
2022-12-20T16:49:52.302Z,101636.69
2022-12-20T16:52:55.502Z,101621.97
2022-12-20T16:55:57.858Z,101625.00
2022-12-20T16:59:23.530Z,101620.13
2022-12-20T17:02:27.748Z,101606.88
2022-12-20T17:05:32.728Z,101603.31
2022-12-20T17:11:54.799Z,101609.63
2022-12-20T17:14:57.125Z,101600.50
2022-12-20T17:17:59.580Z,101607.44
2022-12-20T17:21:05.396Z,101612.56
2022-12-20T17:24:18.183Z,101608.00
2022-12-20T17:27:20.931Z,101608.34
2022-12-20T17:30:24.931Z,101601.94
2022-12-20T17:33:27.171Z,101606.13
2022-12-20T17:36:34.444Z,101616.94
2022-12-20T17:39:40.008Z,101610.78
2022-12-20T17:42:42.885Z,101611.84
2022-12-20T17:45:45.214Z,101601.47
2022-12-20T17:48:48.604Z,101609.34
2022-12-20T17:51:56.255Z,101600.56
2022-12-20T17:54:58.558Z,101598.72
2022-12-20T17:58:01.194Z,101599.19
2022-12-20T18:01:03.640Z,101599.63
2022-12-20T18:04:08.882Z,101593.34
2022-12-20T18:07:11.180Z,101586.03
2022-12-20T18:10:13.494Z,101585.22
2022-12-20T18:13:15.743Z,101582.19
2022-12-20T18:16:21.662Z,101583.25
2022-12-20T18:19:24.255Z,101576.13
2022-12-20T18:22:26.577Z,101567.97
2022-12-20T18:25:30.452Z,101569.41
2022-12-20T18:28:32.812Z,101558.97
2022-12-20T18:31:35.518Z,101557.19
2022-12-20T18:34:37.853Z,101554.88
2022-12-20T18:37:40.337Z,101545.81
2022-12-20T18:40:45.741Z,101542.06
2022-12-20T18:43:48.272Z,101538.72
2022-12-20T18:46:50.575Z,101522.19
2022-12-20T18:49:52.811Z,101535.00
2022-12-20T18:53:00.951Z,101544.09
2022-12-20T18:56:15.620Z,101546.63
2022-12-20T18:59:17.988Z,101542.00
2022-12-20T19:02:20.497Z,101541.72
2022-12-20T19:05:24.739Z,101549.69
2022-12-20T19:08:28.934Z,101534.69
2022-12-20T19:11:31.435Z,101533.41
2022-12-20T19:14:33.708Z,101525.84
2022-12-20T19:17:35.982Z,101526.00
2022-12-20T19:20:39.135Z,101511.66
2022-12-20T19:23:43.790Z,101515.63
2022-12-20T19:26:46.135Z,101510.19
2022-12-20T19:29:48.436Z,101500.59
2022-12-20T19:32:50.841Z,101507.94
2022-12-20T19:35:56.150Z,101501.41
2022-12-20T19:39:00.738Z,101501.75
2022-12-20T19:42:24.286Z,101511.75
2022-12-20T19:45:26.513Z,101511.41
2022-12-20T19:48:28.946Z,101516.66
2022-12-20T19:51:32.033Z,101521.91
2022-12-20T19:54:35.355Z,101529.00
2022-12-20T19:57:38.242Z,101541.91
2022-12-20T20:00:40.494Z,101541.03
2022-12-20T20:03:42.831Z,101547.19
2022-12-20T20:06:45.180Z,101535.84
2022-12-20T20:09:47.545Z,101538.25
2022-12-20T20:12:50.043Z,101520.91
2022-12-20T20:15:55.301Z,101524.81
2022-12-20T20:18:58.015Z,101526.38
2022-12-20T20:22:00.363Z,101534.31
2022-12-20T20:25:02.701Z,101528.34
2022-12-20T20:28:06.134Z,101527.34
2022-12-20T20:31:13.870Z,101532.09
2022-12-20T20:34:16.343Z,101520.06
2022-12-20T20:37:18.979Z,101520.56
2022-12-20T20:40:21.294Z,101507.06
2022-12-20T20:43:24.100Z,101506.44
2022-12-20T20:46:26.504Z,101518.78
2022-12-20T20:49:28.932Z,101510.00
2022-12-20T20:52:31.216Z,101505.03
2022-12-20T20:55:34.704Z,101505.03
2022-12-20T20:58:37.591Z,101495.00
2022-12-20T21:01:39.870Z,101497.03
2022-12-20T21:04:42.146Z,101504.47
2022-12-20T21:07:45.669Z,101500.19
2022-12-20T21:10:51.190Z,101490.13
2022-12-20T21:13:53.956Z,101485.13
2022-12-20T21:16:56.251Z,101479.25
2022-12-20T21:19:58.511Z,101483.66
2022-12-20T21:23:01.585Z,101493.16
2022-12-20T21:26:04.318Z,101489.31
2022-12-20T21:29:06.729Z,101480.47
2022-12-20T21:32:09.070Z,101459.91
2022-12-20T21:35:11.680Z,101463.38
2022-12-20T21:38:13.974Z,101464.81
2022-12-20T21:41:17.696Z,101466.72
2022-12-20T21:44:19.916Z,101455.59
2022-12-20T21:47:22.389Z,101448.72
2022-12-20T21:50:24.720Z,101443.28
2022-12-20T21:53:28.414Z,101438.25
2022-12-20T21:56:33.019Z,101437.91
2022-12-20T21:59:35.252Z,101435.66
2022-12-20T22:02:37.924Z,101429.06
2022-12-20T22:05:47.177Z,101424.69
2022-12-20T22:08:49.897Z,101431.47
2022-12-20T22:11:52.116Z,101433.94
2022-12-20T22:14:54.360Z,101416.78
2022-12-20T22:17:56.710Z,101404.91
2022-12-20T22:20:58.922Z,101399.88
2022-12-20T22:24:01.803Z,101402.81
2022-12-20T22:27:11.036Z,101404.97
2022-12-20T22:30:13.746Z,101389.91
2022-12-20T22:33:16.046Z,101388.09
2022-12-20T22:36:18.396Z,101387.91
2022-12-20T22:39:20.819Z,101383.91
2022-12-20T22:42:23.159Z,101379.03
2022-12-20T22:45:25.448Z,101365.69
2022-12-20T22:48:28.057Z,101359.47
2022-12-20T22:51:33.319Z,101357.50
2022-12-20T22:54:35.737Z,101351.06
2022-12-20T22:57:38.098Z,101364.19
2022-12-20T23:00:40.295Z,101354.19
2022-12-20T23:03:43.654Z,101350.59
2022-12-20T23:06:46.047Z,101343.00
2022-12-20T23:09:48.898Z,101344.22
2022-12-20T23:13:09.702Z,101338.19
2022-12-20T23:16:12.871Z,101338.78
2022-12-20T23:19:15.074Z,101342.25
2022-12-20T23:22:36.695Z,101331.25
2022-12-20T23:25:38.939Z,101331.13
2022-12-20T23:28:41.528Z,101333.34
2022-12-20T23:31:43.842Z,101335.03
2022-12-20T23:34:46.091Z,101327.09
2022-12-20T23:37:48.706Z,101323.38
2022-12-20T23:40:50.950Z,101319.78
2022-12-20T23:43:53.152Z,101315.34
2022-12-20T23:46:55.411Z,101302.38
2022-12-20T23:49:57.702Z,101302.34
2022-12-20T23:53:00.284Z,101292.44
2022-12-20T23:56:04.277Z,101286.88
2022-12-20T23:59:06.502Z,101284.44
